sensor_id;sensor_type;location;lat;lon;timestamp;temperature;humidity
43089;DHT22;28709;52.030;5.652;2024-02-16T00:02:05;12.30;99.90
43089;DHT22;28709;52.030;5.652;2024-02-16T00:04:31;12.30;99.90
43089;DHT22;28709;52.030;5.652;2024-02-16T00:06:56;12.30;99.90
43089;DHT22;28709;52.030;5.652;2024-02-16T00:09:22;12.30;99.90
43089;DHT22;28709;52.030;5.652;2024-02-16T00:11:47;12.20;99.90
43089;DHT22;28709;52.030;5.652;2024-02-16T00:14:15;12.30;99.90
43089;DHT22;28709;52.030;5.652;2024-02-16T00:16:41;12.20;99.90
43089;DHT22;28709;52.030;5.652;2024-02-16T00:19:06;12.10;99.90
43089;DHT22;28709;52.030;5.652;2024-02-16T00:21:32;12.20;99.90
43089;DHT22;28709;52.030;5.652;2024-02-16T00:23:58;12.10;99.90
43089;DHT22;28709;52.030;5.652;2024-02-16T00:26:23;12.10;99.90
43089;DHT22;28709;52.030;5.652;2024-02-16T00:29:04;12.10;99.90
43089;DHT22;28709;52.030;5.652;2024-02-16T00:31:29;12.10;99.90
43089;DHT22;28709;52.030;5.652;2024-02-16T00:33:56;12.00;99.90
43089;DHT22;28709;52.030;5.652;2024-02-16T00:36:21;12.00;99.90
43089;DHT22;28709;52.030;5.652;2024-02-16T00:38:47;12.00;99.90
43089;DHT22;28709;52.030;5.652;2024-02-16T00:41:19;12.00;99.90
43089;DHT22;28709;52.030;5.652;2024-02-16T00:43:45;12.00;99.90
43089;DHT22;28709;52.030;5.652;2024-02-16T00:46:10;11.90;99.90
43089;DHT22;28709;52.030;5.652;2024-02-16T00:48:36;11.90;99.90
43089;DHT22;28709;52.030;5.652;2024-02-16T00:51:01;11.90;99.90
43089;DHT22;28709;52.030;5.652;2024-02-16T00:53:27;11.90;99.90
43089;DHT22;28709;52.030;5.652;2024-02-16T00:55:52;11.90;99.90
43089;DHT22;28709;52.030;5.652;2024-02-16T00:58:18;11.90;99.90
43089;DHT22;28709;52.030;5.652;2024-02-16T01:00:45;11.90;99.90
43089;DHT22;28709;52.030;5.652;2024-02-16T01:03:10;11.90;99.90
43089;DHT22;28709;52.030;5.652;2024-02-16T01:05:37;11.90;99.90
43089;DHT22;28709;52.030;5.652;2024-02-16T01:08:03;11.90;99.90
43089;DHT22;28709;52.030;5.652;2024-02-16T01:10:29;11.90;99.90
43089;DHT22;28709;52.030;5.652;2024-02-16T01:12:54;11.80;99.90
43089;DHT22;28709;52.030;5.652;2024-02-16T01:15:21;11.80;99.90
43089;DHT22;28709;52.030;5.652;2024-02-16T01:17:46;11.80;99.90
43089;DHT22;28709;52.030;5.652;2024-02-16T01:20:12;11.80;99.90
43089;DHT22;28709;52.030;5.652;2024-02-16T01:22:38;11.80;99.90
43089;DHT22;28709;52.030;5.652;2024-02-16T01:25:04;11.80;99.90
43089;DHT22;28709;52.030;5.652;2024-02-16T01:27:30;11.80;99.90
43089;DHT22;28709;52.030;5.652;2024-02-16T01:29:55;11.70;99.90
43089;DHT22;28709;52.030;5.652;2024-02-16T01:32:21;11.70;99.90
43089;DHT22;28709;52.030;5.652;2024-02-16T01:34:47;11.70;99.90
43089;DHT22;28709;52.030;5.652;2024-02-16T01:37:15;11.70;99.90
43089;DHT22;28709;52.030;5.652;2024-02-16T01:39:40;11.60;99.90
43089;DHT22;28709;52.030;5.652;2024-02-16T01:42:06;11.70;99.90
43089;DHT22;28709;52.030;5.652;2024-02-16T01:44:31;11.60;99.90
43089;DHT22;28709;52.030;5.652;2024-02-16T01:46:57;11.60;99.90
43089;DHT22;28709;52.030;5.652;2024-02-16T01:49:22;11.60;99.90
43089;DHT22;28709;52.030;5.652;2024-02-16T01:51:48;11.60;99.90
43089;DHT22;28709;52.030;5.652;2024-02-16T01:54:14;11.60;99.90
43089;DHT22;28709;52.030;5.652;2024-02-16T01:56:40;11.60;99.90
43089;DHT22;28709;52.030;5.652;2024-02-16T01:59:05;11.60;99.90
43089;DHT22;28709;52.030;5.652;2024-02-16T02:01:31;11.60;99.90
43089;DHT22;28709;52.030;5.652;2024-02-16T02:03:56;11.60;99.90
43089;DHT22;28709;52.030;5.652;2024-02-16T02:06:22;11.60;99.90
43089;DHT22;28709;52.030;5.652;2024-02-16T02:08:48;11.60;99.90
43089;DHT22;28709;52.030;5.652;2024-02-16T02:11:13;11.60;99.90
43089;DHT22;28709;52.030;5.652;2024-02-16T02:13:38;11.60;99.90
43089;DHT22;28709;52.030;5.652;2024-02-16T02:16:04;11.60;99.90
43089;DHT22;28709;52.030;5.652;2024-02-16T02:18:31;11.60;99.90
43089;DHT22;28709;52.030;5.652;2024-02-16T02:20:56;11.50;99.90
43089;DHT22;28709;52.030;5.652;2024-02-16T02:23:22;11.50;99.90
43089;DHT22;28709;52.030;5.652;2024-02-16T02:25:47;11.60;99.90
43089;DHT22;28709;52.030;5.652;2024-02-16T02:28:14;11.60;99.90
43089;DHT22;28709;52.030;5.652;2024-02-16T02:30:41;11.60;99.90
43089;DHT22;28709;52.030;5.652;2024-02-16T02:33:06;11.60;99.90
43089;DHT22;28709;52.030;5.652;2024-02-16T02:35:32;11.60;99.90
43089;DHT22;28709;52.030;5.652;2024-02-16T02:37:57;11.60;99.90
43089;DHT22;28709;52.030;5.652;2024-02-16T02:40:23;11.60;99.90
43089;DHT22;28709;52.030;5.652;2024-02-16T02:42:49;11.60;99.90
43089;DHT22;28709;52.030;5.652;2024-02-16T02:45:15;11.70;99.90
43089;DHT22;28709;52.030;5.652;2024-02-16T02:47:41;11.60;99.90
43089;DHT22;28709;52.030;5.652;2024-02-16T02:50:07;11.60;99.90
43089;DHT22;28709;52.030;5.652;2024-02-16T02:52:33;11.60;99.90
43089;DHT22;28709;52.030;5.652;2024-02-16T02:54:58;11.60;99.90
43089;DHT22;28709;52.030;5.652;2024-02-16T02:57:24;11.60;99.90
43089;DHT22;28709;52.030;5.652;2024-02-16T02:59:49;11.50;99.90
43089;DHT22;28709;52.030;5.652;2024-02-16T03:02:15;11.50;99.90
43089;DHT22;28709;52.030;5.652;2024-02-16T03:04:41;11.60;99.90
43089;DHT22;28709;52.030;5.652;2024-02-16T03:07:07;11.60;99.90
43089;DHT22;28709;52.030;5.652;2024-02-16T03:09:32;11.60;99.90
43089;DHT22;28709;52.030;5.652;2024-02-16T03:11:58;11.70;99.90
43089;DHT22;28709;52.030;5.652;2024-02-16T03:14:23;11.70;99.90
43089;DHT22;28709;52.030;5.652;2024-02-16T03:16:49;11.70;99.90
43089;DHT22;28709;52.030;5.652;2024-02-16T03:19:14;11.80;99.90
43089;DHT22;28709;52.030;5.652;2024-02-16T03:21:40;11.80;99.90
43089;DHT22;28709;52.030;5.652;2024-02-16T03:24:05;11.80;99.90
43089;DHT22;28709;52.030;5.652;2024-02-16T03:26:31;11.80;99.90
43089;DHT22;28709;52.030;5.652;2024-02-16T03:28:57;11.70;99.90
43089;DHT22;28709;52.030;5.652;2024-02-16T03:31:23;11.80;99.90
43089;DHT22;28709;52.030;5.652;2024-02-16T03:33:49;11.80;99.90
43089;DHT22;28709;52.030;5.652;2024-02-16T03:36:17;11.80;99.90
43089;DHT22;28709;52.030;5.652;2024-02-16T03:38:46;11.70;99.90
43089;DHT22;28709;52.030;5.652;2024-02-16T03:41:17;11.70;99.90
43089;DHT22;28709;52.030;5.652;2024-02-16T03:43:43;11.70;99.90
43089;DHT22;28709;52.030;5.652;2024-02-16T03:46:09;11.70;99.90
43089;DHT22;28709;52.030;5.652;2024-02-16T03:48:34;11.70;99.90
43089;DHT22;28709;52.030;5.652;2024-02-16T03:51:00;11.60;99.90
43089;DHT22;28709;52.030;5.652;2024-02-16T03:53:26;11.70;99.90
43089;DHT22;28709;52.030;5.652;2024-02-16T03:55:51;11.70;99.90
43089;DHT22;28709;52.030;5.652;2024-02-16T03:58:17;11.70;99.90
43089;DHT22;28709;52.030;5.652;2024-02-16T04:00:42;11.60;99.90
43089;DHT22;28709;52.030;5.652;2024-02-16T04:03:08;11.60;99.90
43089;DHT22;28709;52.030;5.652;2024-02-16T04:05:35;11.60;99.90
43089;DHT22;28709;52.030;5.652;2024-02-16T04:08:00;11.60;99.90
43089;DHT22;28709;52.030;5.652;2024-02-16T04:10:30;11.60;99.90
43089;DHT22;28709;52.030;5.652;2024-02-16T04:12:55;11.60;99.90
43089;DHT22;28709;52.030;5.652;2024-02-16T04:15:21;11.60;99.90
43089;DHT22;28709;52.030;5.652;2024-02-16T04:17:47;11.60;99.90
43089;DHT22;28709;52.030;5.652;2024-02-16T04:20:14;11.60;99.90
43089;DHT22;28709;52.030;5.652;2024-02-16T04:22:39;11.50;99.90
43089;DHT22;28709;52.030;5.652;2024-02-16T04:25:05;11.60;99.90
43089;DHT22;28709;52.030;5.652;2024-02-16T04:27:30;11.50;99.90
43089;DHT22;28709;52.030;5.652;2024-02-16T04:29:56;11.50;99.90
43089;DHT22;28709;52.030;5.652;2024-02-16T04:32:22;11.50;99.90
43089;DHT22;28709;52.030;5.652;2024-02-16T04:34:50;11.50;99.90
43089;DHT22;28709;52.030;5.652;2024-02-16T04:37:17;11.50;99.90
43089;DHT22;28709;52.030;5.652;2024-02-16T04:39:44;11.50;99.90
43089;DHT22;28709;52.030;5.652;2024-02-16T04:42:10;11.50;99.90
43089;DHT22;28709;52.030;5.652;2024-02-16T04:44:39;11.50;99.90
43089;DHT22;28709;52.030;5.652;2024-02-16T04:47:04;11.60;99.90
43089;DHT22;28709;52.030;5.652;2024-02-16T04:49:30;11.60;99.90
43089;DHT22;28709;52.030;5.652;2024-02-16T04:51:56;11.60;99.90
43089;DHT22;28709;52.030;5.652;2024-02-16T04:54:21;11.60;99.90
43089;DHT22;28709;52.030;5.652;2024-02-16T04:56:48;11.70;99.90
43089;DHT22;28709;52.030;5.652;2024-02-16T04:59:14;11.70;99.90
43089;DHT22;28709;52.030;5.652;2024-02-16T05:01:39;11.70;99.90
43089;DHT22;28709;52.030;5.652;2024-02-16T05:04:05;11.70;99.90
43089;DHT22;28709;52.030;5.652;2024-02-16T05:06:32;11.80;99.90
43089;DHT22;28709;52.030;5.652;2024-02-16T05:08:57;11.80;99.90
43089;DHT22;28709;52.030;5.652;2024-02-16T05:11:23;11.80;99.90
43089;DHT22;28709;52.030;5.652;2024-02-16T05:13:50;11.80;99.90
43089;DHT22;28709;52.030;5.652;2024-02-16T05:16:15;11.90;99.90
43089;DHT22;28709;52.030;5.652;2024-02-16T05:18:42;11.90;99.90
43089;DHT22;28709;52.030;5.652;2024-02-16T05:21:07;11.90;99.90
43089;DHT22;28709;52.030;5.652;2024-02-16T05:23:33;11.90;99.90
43089;DHT22;28709;52.030;5.652;2024-02-16T05:25:58;11.90;99.90
43089;DHT22;28709;52.030;5.652;2024-02-16T05:28:24;11.90;99.90
43089;DHT22;28709;52.030;5.652;2024-02-16T05:30:49;11.90;99.90
43089;DHT22;28709;52.030;5.652;2024-02-16T05:33:15;11.90;99.90
43089;DHT22;28709;52.030;5.652;2024-02-16T05:35:40;11.90;99.90
43089;DHT22;28709;52.030;5.652;2024-02-16T05:38:06;12.00;99.90
43089;DHT22;28709;52.030;5.652;2024-02-16T05:40:46;12.00;99.90
43089;DHT22;28709;52.030;5.652;2024-02-16T05:43:19;12.00;99.90
43089;DHT22;28709;52.030;5.652;2024-02-16T05:45:45;12.00;99.90
43089;DHT22;28709;52.030;5.652;2024-02-16T05:48:11;12.10;99.90
43089;DHT22;28709;52.030;5.652;2024-02-16T05:50:37;12.10;99.90
43089;DHT22;28709;52.030;5.652;2024-02-16T05:53:03;12.10;99.90
43089;DHT22;28709;52.030;5.652;2024-02-16T05:55:28;12.10;99.90
43089;DHT22;28709;52.030;5.652;2024-02-16T05:57:54;12.10;99.90
43089;DHT22;28709;52.030;5.652;2024-02-16T06:00:20;12.10;99.90
43089;DHT22;28709;52.030;5.652;2024-02-16T06:02:46;12.10;99.90
43089;DHT22;28709;52.030;5.652;2024-02-16T06:05:12;12.10;99.90
43089;DHT22;28709;52.030;5.652;2024-02-16T06:07:38;12.10;99.90
43089;DHT22;28709;52.030;5.652;2024-02-16T06:10:03;12.10;99.90
43089;DHT22;28709;52.030;5.652;2024-02-16T06:12:32;12.10;99.90
43089;DHT22;28709;52.030;5.652;2024-02-16T06:14:58;12.10;99.90
43089;DHT22;28709;52.030;5.652;2024-02-16T06:17:24;12.10;99.90
43089;DHT22;28709;52.030;5.652;2024-02-16T06:19:49;12.10;99.90
43089;DHT22;28709;52.030;5.652;2024-02-16T06:22:15;12.10;99.90
43089;DHT22;28709;52.030;5.652;2024-02-16T06:24:40;12.10;99.90
43089;DHT22;28709;52.030;5.652;2024-02-16T06:27:06;12.10;99.90
43089;DHT22;28709;52.030;5.652;2024-02-16T06:29:33;12.10;99.90
43089;DHT22;28709;52.030;5.652;2024-02-16T06:31:59;12.10;99.90
43089;DHT22;28709;52.030;5.652;2024-02-16T06:34:24;12.10;99.90
43089;DHT22;28709;52.030;5.652;2024-02-16T06:36:50;12.10;99.90
43089;DHT22;28709;52.030;5.652;2024-02-16T06:39:16;12.10;99.90
43089;DHT22;28709;52.030;5.652;2024-02-16T06:41:48;12.10;99.90
43089;DHT22;28709;52.030;5.652;2024-02-16T06:44:16;12.10;99.90
43089;DHT22;28709;52.030;5.652;2024-02-16T06:46:42;12.20;99.90
43089;DHT22;28709;52.030;5.652;2024-02-16T06:49:08;12.10;99.90
43089;DHT22;28709;52.030;5.652;2024-02-16T06:51:33;12.10;99.90
43089;DHT22;28709;52.030;5.652;2024-02-16T06:53:59;12.10;99.90
43089;DHT22;28709;52.030;5.652;2024-02-16T06:56:25;12.10;99.90
43089;DHT22;28709;52.030;5.652;2024-02-16T06:58:50;12.10;99.90
43089;DHT22;28709;52.030;5.652;2024-02-16T07:01:16;12.10;99.90
43089;DHT22;28709;52.030;5.652;2024-02-16T07:03:43;12.10;99.90
43089;DHT22;28709;52.030;5.652;2024-02-16T07:06:09;12.10;99.90
43089;DHT22;28709;52.030;5.652;2024-02-16T07:08:38;12.10;99.90
43089;DHT22;28709;52.030;5.652;2024-02-16T07:11:04;12.10;99.90
43089;DHT22;28709;52.030;5.652;2024-02-16T07:13:31;12.10;99.90
43089;DHT22;28709;52.030;5.652;2024-02-16T07:15:56;12.10;99.90
43089;DHT22;28709;52.030;5.652;2024-02-16T07:18:22;12.10;99.90
43089;DHT22;28709;52.030;5.652;2024-02-16T07:20:48;12.10;99.90
43089;DHT22;28709;52.030;5.652;2024-02-16T07:23:13;12.10;99.90
43089;DHT22;28709;52.030;5.652;2024-02-16T07:25:43;12.10;99.90
43089;DHT22;28709;52.030;5.652;2024-02-16T07:28:09;12.10;99.90
43089;DHT22;28709;52.030;5.652;2024-02-16T07:30:35;12.10;99.90
43089;DHT22;28709;52.030;5.652;2024-02-16T07:33:06;12.20;99.90
43089;DHT22;28709;52.030;5.652;2024-02-16T07:35:35;12.20;99.90
43089;DHT22;28709;52.030;5.652;2024-02-16T07:38:04;12.20;99.90
43089;DHT22;28709;52.030;5.652;2024-02-16T07:40:29;12.20;99.90
43089;DHT22;28709;52.030;5.652;2024-02-16T07:42:56;12.20;99.90
43089;DHT22;28709;52.030;5.652;2024-02-16T07:45:21;12.20;99.90
43089;DHT22;28709;52.030;5.652;2024-02-16T07:47:47;12.30;99.90
43089;DHT22;28709;52.030;5.652;2024-02-16T07:50:12;12.30;99.90
43089;DHT22;28709;52.030;5.652;2024-02-16T07:52:39;12.30;99.90
43089;DHT22;28709;52.030;5.652;2024-02-16T07:55:08;12.40;99.90
43089;DHT22;28709;52.030;5.652;2024-02-16T07:57:34;12.40;99.90
43089;DHT22;28709;52.030;5.652;2024-02-16T07:59:59;12.40;99.90
43089;DHT22;28709;52.030;5.652;2024-02-16T08:02:25;12.40;99.90
43089;DHT22;28709;52.030;5.652;2024-02-16T08:04:50;12.40;99.90
43089;DHT22;28709;52.030;5.652;2024-02-16T08:07:16;12.40;99.90
43089;DHT22;28709;52.030;5.652;2024-02-16T08:09:45;12.50;99.90
43089;DHT22;28709;52.030;5.652;2024-02-16T08:12:11;12.50;99.90
43089;DHT22;28709;52.030;5.652;2024-02-16T08:14:37;12.50;99.90
43089;DHT22;28709;52.030;5.652;2024-02-16T08:17:03;12.60;99.90
43089;DHT22;28709;52.030;5.652;2024-02-16T08:19:31;12.60;99.90
43089;DHT22;28709;52.030;5.652;2024-02-16T08:21:57;12.60;99.90
43089;DHT22;28709;52.030;5.652;2024-02-16T08:24:22;12.60;99.90
43089;DHT22;28709;52.030;5.652;2024-02-16T08:26:48;12.70;99.90
43089;DHT22;28709;52.030;5.652;2024-02-16T08:29:13;12.70;99.90
43089;DHT22;28709;52.030;5.652;2024-02-16T08:31:39;12.80;99.90
43089;DHT22;28709;52.030;5.652;2024-02-16T08:34:04;12.80;99.90
43089;DHT22;28709;52.030;5.652;2024-02-16T08:36:32;12.80;99.90
43089;DHT22;28709;52.030;5.652;2024-02-16T08:38:59;12.90;99.90
43089;DHT22;28709;52.030;5.652;2024-02-16T08:41:24;13.00;99.90
43089;DHT22;28709;52.030;5.652;2024-02-16T08:43:50;13.00;99.90
43089;DHT22;28709;52.030;5.652;2024-02-16T08:46:16;13.10;99.90
43089;DHT22;28709;52.030;5.652;2024-02-16T08:48:41;13.10;99.90
43089;DHT22;28709;52.030;5.652;2024-02-16T08:51:07;13.20;99.90
43089;DHT22;28709;52.030;5.652;2024-02-16T08:53:32;13.20;99.90
43089;DHT22;28709;52.030;5.652;2024-02-16T08:55:58;13.30;99.90
43089;DHT22;28709;52.030;5.652;2024-02-16T08:58:23;13.40;99.90
43089;DHT22;28709;52.030;5.652;2024-02-16T09:00:49;13.50;99.90
43089;DHT22;28709;52.030;5.652;2024-02-16T09:03:15;13.50;99.90
43089;DHT22;28709;52.030;5.652;2024-02-16T09:05:42;13.60;99.90
43089;DHT22;28709;52.030;5.652;2024-02-16T09:08:09;13.70;99.90
43089;DHT22;28709;52.030;5.652;2024-02-16T09:10:34;13.70;99.90
43089;DHT22;28709;52.030;5.652;2024-02-16T09:13:00;13.90;99.90
43089;DHT22;28709;52.030;5.652;2024-02-16T09:15:25;14.00;99.90
43089;DHT22;28709;52.030;5.652;2024-02-16T09:17:51;14.00;99.90
43089;DHT22;28709;52.030;5.652;2024-02-16T09:20:16;14.10;99.90
43089;DHT22;28709;52.030;5.652;2024-02-16T09:22:47;14.10;99.90
43089;DHT22;28709;52.030;5.652;2024-02-16T09:25:14;14.10;99.90
43089;DHT22;28709;52.030;5.652;2024-02-16T09:27:39;14.20;99.90
43089;DHT22;28709;52.030;5.652;2024-02-16T09:30:07;14.10;99.90
43089;DHT22;28709;52.030;5.652;2024-02-16T09:32:32;14.10;99.90
43089;DHT22;28709;52.030;5.652;2024-02-16T09:34:58;14.10;99.90
43089;DHT22;28709;52.030;5.652;2024-02-16T09:37:23;14.10;99.90
43089;DHT22;28709;52.030;5.652;2024-02-16T09:39:49;14.10;99.90
43089;DHT22;28709;52.030;5.652;2024-02-16T09:42:14;14.00;99.90
43089;DHT22;28709;52.030;5.652;2024-02-16T09:44:41;14.00;99.90
43089;DHT22;28709;52.030;5.652;2024-02-16T09:47:08;13.90;99.90
43089;DHT22;28709;52.030;5.652;2024-02-16T09:49:36;13.90;99.90
43089;DHT22;28709;52.030;5.652;2024-02-16T09:52:02;13.80;99.90
43089;DHT22;28709;52.030;5.652;2024-02-16T09:54:31;13.80;99.90
43089;DHT22;28709;52.030;5.652;2024-02-16T09:56:57;13.90;99.90
43089;DHT22;28709;52.030;5.652;2024-02-16T09:59:22;13.80;99.90
43089;DHT22;28709;52.030;5.652;2024-02-16T10:01:48;13.80;99.90
43089;DHT22;28709;52.030;5.652;2024-02-16T10:04:23;13.80;99.90
43089;DHT22;28709;52.030;5.652;2024-02-16T10:06:49;13.80;99.90
43089;DHT22;28709;52.030;5.652;2024-02-16T10:09:25;13.80;99.90
43089;DHT22;28709;52.030;5.652;2024-02-16T10:11:51;13.80;99.90
43089;DHT22;28709;52.030;5.652;2024-02-16T10:14:16;13.70;99.90
43089;DHT22;28709;52.030;5.652;2024-02-16T10:16:44;13.60;99.90
43089;DHT22;28709;52.030;5.652;2024-02-16T10:19:10;13.70;99.90
43089;DHT22;28709;52.030;5.652;2024-02-16T10:21:36;13.60;99.90
43089;DHT22;28709;52.030;5.652;2024-02-16T10:24:02;13.60;99.90
43089;DHT22;28709;52.030;5.652;2024-02-16T10:26:29;13.60;99.90
43089;DHT22;28709;52.030;5.652;2024-02-16T10:28:55;13.60;99.90
43089;DHT22;28709;52.030;5.652;2024-02-16T10:31:23;13.60;99.90
43089;DHT22;28709;52.030;5.652;2024-02-16T10:34:00;13.60;99.90
43089;DHT22;28709;52.030;5.652;2024-02-16T10:36:27;13.60;99.90
43089;DHT22;28709;52.030;5.652;2024-02-16T10:38:54;13.60;99.90
43089;DHT22;28709;52.030;5.652;2024-02-16T10:41:19;13.60;99.90
43089;DHT22;28709;52.030;5.652;2024-02-16T10:43:46;13.60;99.90
43089;DHT22;28709;52.030;5.652;2024-02-16T10:46:13;13.60;99.90
43089;DHT22;28709;52.030;5.652;2024-02-16T10:48:40;13.60;99.90
43089;DHT22;28709;52.030;5.652;2024-02-16T10:51:05;13.60;99.90
43089;DHT22;28709;52.030;5.652;2024-02-16T10:53:32;13.50;99.90
43089;DHT22;28709;52.030;5.652;2024-02-16T10:55:58;13.50;99.90
43089;DHT22;28709;52.030;5.652;2024-02-16T10:58:26;13.30;99.90
43089;DHT22;28709;52.030;5.652;2024-02-16T11:00:52;13.20;99.90
43089;DHT22;28709;52.030;5.652;2024-02-16T11:03:21;13.10;99.90
43089;DHT22;28709;52.030;5.652;2024-02-16T11:05:48;13.10;99.90
43089;DHT22;28709;52.030;5.652;2024-02-16T11:08:19;13.00;99.90
43089;DHT22;28709;52.030;5.652;2024-02-16T11:10:55;13.00;99.90
43089;DHT22;28709;52.030;5.652;2024-02-16T11:13:22;12.90;99.90
43089;DHT22;28709;52.030;5.652;2024-02-16T11:15:47;12.90;99.90
43089;DHT22;28709;52.030;5.652;2024-02-16T11:18:21;12.90;99.90
43089;DHT22;28709;52.030;5.652;2024-02-16T11:20:47;12.90;99.90
43089;DHT22;28709;52.030;5.652;2024-02-16T11:23:14;12.80;99.90
43089;DHT22;28709;52.030;5.652;2024-02-16T11:25:49;12.70;99.90
43089;DHT22;28709;52.030;5.652;2024-02-16T11:28:15;12.60;99.90
43089;DHT22;28709;52.030;5.652;2024-02-16T11:30:40;12.50;99.90
43089;DHT22;28709;52.030;5.652;2024-02-16T11:33:10;12.40;99.90
43089;DHT22;28709;52.030;5.652;2024-02-16T11:35:35;12.40;99.90
43089;DHT22;28709;52.030;5.652;2024-02-16T11:38:01;12.30;99.90
43089;DHT22;28709;52.030;5.652;2024-02-16T11:40:27;12.20;99.90
43089;DHT22;28709;52.030;5.652;2024-02-16T11:43:01;12.20;99.90
43089;DHT22;28709;52.030;5.652;2024-02-16T11:45:27;12.10;99.90
43089;DHT22;28709;52.030;5.652;2024-02-16T11:48:05;12.10;99.90
43089;DHT22;28709;52.030;5.652;2024-02-16T11:50:31;12.00;99.90
43089;DHT22;28709;52.030;5.652;2024-02-16T11:52:57;12.00;99.90
43089;DHT22;28709;52.030;5.652;2024-02-16T11:55:23;12.00;99.90
43089;DHT22;28709;52.030;5.652;2024-02-16T11:57:49;12.00;99.90
43089;DHT22;28709;52.030;5.652;2024-02-16T12:00:16;12.00;99.90
43089;DHT22;28709;52.030;5.652;2024-02-16T12:02:41;12.00;99.90
43089;DHT22;28709;52.030;5.652;2024-02-16T12:05:07;12.00;99.90
43089;DHT22;28709;52.030;5.652;2024-02-16T12:07:33;12.00;99.90
43089;DHT22;28709;52.030;5.652;2024-02-16T12:10:02;12.10;99.90
43089;DHT22;28709;52.030;5.652;2024-02-16T12:12:31;12.10;99.90
43089;DHT22;28709;52.030;5.652;2024-02-16T12:14:56;12.10;99.90
43089;DHT22;28709;52.030;5.652;2024-02-16T12:17:22;12.10;99.90
43089;DHT22;28709;52.030;5.652;2024-02-16T12:19:47;12.10;99.90
43089;DHT22;28709;52.030;5.652;2024-02-16T12:22:18;12.10;99.90
43089;DHT22;28709;52.030;5.652;2024-02-16T12:24:47;12.10;99.90
43089;DHT22;28709;52.030;5.652;2024-02-16T12:27:13;12.10;99.90
43089;DHT22;28709;52.030;5.652;2024-02-16T12:29:40;12.10;99.90
43089;DHT22;28709;52.030;5.652;2024-02-16T12:32:05;12.10;99.90
43089;DHT22;28709;52.030;5.652;2024-02-16T12:34:31;12.10;99.90
43089;DHT22;28709;52.030;5.652;2024-02-16T12:36:57;12.10;99.90
43089;DHT22;28709;52.030;5.652;2024-02-16T12:39:22;12.10;99.90
43089;DHT22;28709;52.030;5.652;2024-02-16T12:41:48;12.10;99.90
43089;DHT22;28709;52.030;5.652;2024-02-16T12:44:14;12.20;99.90
43089;DHT22;28709;52.030;5.652;2024-02-16T12:46:40;12.20;99.90
43089;DHT22;28709;52.030;5.652;2024-02-16T12:49:07;12.20;99.90
43089;DHT22;28709;52.030;5.652;2024-02-16T12:51:32;12.10;99.90
43089;DHT22;28709;52.030;5.652;2024-02-16T12:53:58;12.10;99.90
43089;DHT22;28709;52.030;5.652;2024-02-16T12:56:25;12.10;99.90
43089;DHT22;28709;52.030;5.652;2024-02-16T12:58:51;12.00;99.90
43089;DHT22;28709;52.030;5.652;2024-02-16T13:01:16;12.00;99.90
43089;DHT22;28709;52.030;5.652;2024-02-16T13:03:47;12.00;99.90
43089;DHT22;28709;52.030;5.652;2024-02-16T13:06:12;12.00;99.90
43089;DHT22;28709;52.030;5.652;2024-02-16T13:08:38;12.00;99.90
43089;DHT22;28709;52.030;5.652;2024-02-16T13:11:03;12.00;99.90
43089;DHT22;28709;52.030;5.652;2024-02-16T13:13:29;12.00;99.90
43089;DHT22;28709;52.030;5.652;2024-02-16T13:15:55;11.90;99.90
43089;DHT22;28709;52.030;5.652;2024-02-16T13:18:22;11.90;99.90
43089;DHT22;28709;52.030;5.652;2024-02-16T13:20:48;12.00;99.90
43089;DHT22;28709;52.030;5.652;2024-02-16T13:23:13;12.00;99.90
43089;DHT22;28709;52.030;5.652;2024-02-16T13:25:39;12.10;99.90
43089;DHT22;28709;52.030;5.652;2024-02-16T13:28:04;12.10;99.90
43089;DHT22;28709;52.030;5.652;2024-02-16T13:30:30;12.20;99.90
43089;DHT22;28709;52.030;5.652;2024-02-16T13:32:55;12.30;99.90
43089;DHT22;28709;52.030;5.652;2024-02-16T13:35:21;12.30;99.90
43089;DHT22;28709;52.030;5.652;2024-02-16T13:37:47;12.40;99.90
43089;DHT22;28709;52.030;5.652;2024-02-16T13:40:12;12.50;99.90
43089;DHT22;28709;52.030;5.652;2024-02-16T13:42:38;12.60;99.90
43089;DHT22;28709;52.030;5.652;2024-02-16T13:45:04;12.60;99.90
43089;DHT22;28709;52.030;5.652;2024-02-16T13:47:30;12.70;99.90
43089;DHT22;28709;52.030;5.652;2024-02-16T13:49:56;12.70;99.90
43089;DHT22;28709;52.030;5.652;2024-02-16T13:52:23;12.70;99.90
43089;DHT22;28709;52.030;5.652;2024-02-16T13:54:49;12.70;99.90
43089;DHT22;28709;52.030;5.652;2024-02-16T13:57:14;12.70;99.90
43089;DHT22;28709;52.030;5.652;2024-02-16T13:59:40;12.70;99.90
43089;DHT22;28709;52.030;5.652;2024-02-16T14:02:06;12.80;99.90
43089;DHT22;28709;52.030;5.652;2024-02-16T14:04:32;12.70;99.90
43089;DHT22;28709;52.030;5.652;2024-02-16T14:06:58;12.70;99.90
43089;DHT22;28709;52.030;5.652;2024-02-16T14:09:23;12.70;99.90
43089;DHT22;28709;52.030;5.652;2024-02-16T14:11:49;12.70;99.90
43089;DHT22;28709;52.030;5.652;2024-02-16T14:14:16;12.70;99.90
43089;DHT22;28709;52.030;5.652;2024-02-16T14:16:41;12.80;99.90
43089;DHT22;28709;52.030;5.652;2024-02-16T14:19:07;12.90;99.90
43089;DHT22;28709;52.030;5.652;2024-02-16T14:21:32;12.90;99.90
43089;DHT22;28709;52.030;5.652;2024-02-16T14:23:58;12.90;99.90
43089;DHT22;28709;52.030;5.652;2024-02-16T14:26:24;12.90;99.90
43089;DHT22;28709;52.030;5.652;2024-02-16T14:28:49;12.90;99.90
43089;DHT22;28709;52.030;5.652;2024-02-16T14:31:15;12.90;99.90
43089;DHT22;28709;52.030;5.652;2024-02-16T14:33:42;12.90;99.90
43089;DHT22;28709;52.030;5.652;2024-02-16T14:36:09;12.90;99.90
43089;DHT22;28709;52.030;5.652;2024-02-16T14:38:35;12.90;99.90
43089;DHT22;28709;52.030;5.652;2024-02-16T14:41:00;12.90;99.90
43089;DHT22;28709;52.030;5.652;2024-02-16T14:43:32;12.90;99.90
43089;DHT22;28709;52.030;5.652;2024-02-16T14:45:58;12.80;99.90
43089;DHT22;28709;52.030;5.652;2024-02-16T14:48:23;12.80;99.90
43089;DHT22;28709;52.030;5.652;2024-02-16T14:50:51;12.80;99.90
43089;DHT22;28709;52.030;5.652;2024-02-16T14:53:18;12.80;99.90
43089;DHT22;28709;52.030;5.652;2024-02-16T14:55:44;12.70;99.90
43089;DHT22;28709;52.030;5.652;2024-02-16T14:58:09;12.70;99.90
43089;DHT22;28709;52.030;5.652;2024-02-16T15:00:35;12.60;99.90
43089;DHT22;28709;52.030;5.652;2024-02-16T15:03:01;12.50;99.90
43089;DHT22;28709;52.030;5.652;2024-02-16T15:05:28;12.50;99.90
43089;DHT22;28709;52.030;5.652;2024-02-16T15:07:54;12.50;99.90
43089;DHT22;28709;52.030;5.652;2024-02-16T15:10:19;12.50;99.90
43089;DHT22;28709;52.030;5.652;2024-02-16T15:12:44;12.40;99.90
43089;DHT22;28709;52.030;5.652;2024-02-16T15:15:11;12.40;99.90
43089;DHT22;28709;52.030;5.652;2024-02-16T15:17:38;12.40;99.90
43089;DHT22;28709;52.030;5.652;2024-02-16T15:20:05;12.40;99.90
43089;DHT22;28709;52.030;5.652;2024-02-16T15:22:32;12.50;99.90
43089;DHT22;28709;52.030;5.652;2024-02-16T15:24:57;12.50;99.90